Time;durP1;ratioP1;P1;durP2;ratioP2;P2;SDS_P1;SDS_P2;PMS_P1;PMS_P2;Temp;Humidity;BMP_temperature;BMP_pressure;BME280_temperature;BME280_humidity;BME280_pressure;Samples;Min_cycle;Max_cycle;Signal;HPM_P1;HPM_P2
2021/10/24 00:00:27;;;;;;;10.50;5.20;;;;;;;3.56;75.72;101136.80;227036;1198;139414;-67
2021/10/24 00:05:59;;;;;;;10.90;5.30;;;;;;;3.45;75.62;101141.08;227581;1198;233092;-67
2021/10/24 00:11:14;;;;;;;;;;;;;;;;;;;;;
2021/10/24 00:16:36;;;;;;;9.40;6.40;;;;;;;3.31;75.67;101144.30;228127;1198;140781;-67
2021/10/24 00:21:42;;;;;;;9.10;5.40;;;;;;;3.21;75.50;101145.36;228120;1198;139008;-68
2021/10/24 00:26:57;;;;;;;8.50;5.30;;;;;;;3.14;75.43;101144.55;229004;1198;142708;-68
2021/10/24 00:32:02;;;;;;;11.90;5.40;;;;;;;3.14;75.79;101136.84;227554;1199;139539;-67
2021/10/24 00:37:14;;;;;;;11.20;5.10;;;;;;;3.12;75.89;101134.40;228638;1199;140530;-67
2021/10/24 00:42:19;;;;;;;10.80;5.20;;;;;;;3.11;75.78;101135.73;228571;1198;139574;-68
2021/10/24 00:47:24;;;;;;;12.30;7.00;;;;;;;3.14;75.95;101142.64;229032;1198;140982;-68
2021/10/24 00:52:29;;;;;;;14.40;8.00;;;;;;;3.16;75.84;101148.13;229196;1198;139894;-68
2021/10/24 00:57:52;;;;;;;13.70;6.70;;;;;;;3.13;75.97;101149.64;228938;1198;139656;-68
2021/10/24 01:02:59;;;;;;;9.80;5.80;;;;;;;3.07;75.92;101153.09;226856;1200;139975;-67
2021/10/24 01:08:13;;;;;;;13.50;5.50;;;;;;;3.10;76.22;101149.02;228394;1198;139703;-67
2021/10/24 01:13:29;;;;;;;11.80;5.40;;;;;;;3.15;76.35;101149.56;228088;1198;140227;-66
2021/10/24 01:18:43;;;;;;;21.90;6.80;;;;;;;3.15;76.45;101148.90;228524;1198;140657;-68
2021/10/24 01:24:00;;;;;;;18.90;7.20;;;;;;;3.19;76.43;101155.04;227691;1200;139861;-65
2021/10/24 01:29:10;;;;;;;15.20;7.60;;;;;;;3.21;76.60;101164.28;227967;1198;139214;-66
2021/10/24 01:34:35;;;;;;;;;;;;;;;;;;;;;
2021/10/24 01:39:40;;;;;;;21.10;7.20;;;;;;;3.08;76.53;101178.63;226775;1198;138868;-67
2021/10/24 01:44:53;;;;;;;8.20;6.00;;;;;;;3.05;76.25;101181.34;227399;1198;139530;-67
2021/10/24 01:49:57;;;;;;;12.10;5.80;;;;;;;2.99;76.06;101170.31;226119;1198;139195;-67
2021/10/24 01:55:41;;;;;;;15.60;6.90;;;;;;;2.87;76.37;101168.18;227495;1198;141029;-67
2021/10/24 02:01:06;;;;;;;15.20;6.00;;;;;;;2.86;76.79;101175.42;226203;1198;138989;-67
2021/10/24 02:06:10;;;;;;;16.50;6.20;;;;;;;2.88;76.72;101174.52;227954;1200;140276;-67
2021/10/24 02:11:14;;;;;;;19.80;8.00;;;;;;;2.89;77.02;101170.58;227459;1200;140333;-66
2021/10/24 02:17:08;;;;;;;;;;;;;;;;;;;;;
2021/10/24 02:22:12;;;;;;;14.90;7.10;;;;;;;2.96;77.05;101166.04;227280;1198;139189;-67
2021/10/24 02:27:32;;;;;;;14.00;7.10;;;;;;;2.93;77.15;101175.10;226550;1198;139232;-67
2021/10/24 02:32:37;;;;;;;18.60;6.00;;;;;;;2.95;77.44;101184.77;228307;1198;139275;-67
2021/10/24 02:37:45;;;;;;;17.50;9.40;;;;;;;3.02;77.52;101189.19;228616;1199;140085;-67
2021/10/24 02:43:19;;;;;;;12.30;7.30;;;;;;;3.03;77.50;101197.10;228150;1198;139141;-68
2021/10/24 02:48:23;;;;;;;13.00;6.70;;;;;;;3.02;77.37;101197.03;229242;1192;140075;-67
2021/10/24 02:53:27;;;;;;;23.50;7.40;;;;;;;3.05;77.31;101199.45;229103;1198;139209;-68
2021/10/24 02:58:32;;;;;;;21.20;8.40;;;;;;;3.01;76.97;101201.70;229169;1198;139757;-68
2021/10/24 03:03:36;;;;;;;15.70;7.00;;;;;;;2.94;76.99;101208.92;228914;1199;141107;-68
2021/10/24 03:08:44;;;;;;;20.00;9.50;;;;;;;2.82;76.44;101214.30;228388;1198;142683;-67
2021/10/24 03:13:58;;;;;;;;;;;;;;;;;;;;;
2021/10/24 03:19:14;;;;;;;14.20;7.20;;;;;;;2.54;76.06;101225.98;227076;1200;140411;-68
2021/10/24 03:24:49;;;;;;;;;;;;;;;;;;;;;
2021/10/24 03:29:49;;;;;;;18.00;8.50;;;;;;;2.30;76.56;101241.41;227947;1200;139879;-68
2021/10/24 03:35:01;;;;;;;11.10;6.30;;;;;;;2.22;76.46;101245.50;227467;1198;140702;-66
2021/10/24 03:40:12;;;;;;;17.00;10.90;;;;;;;2.20;76.41;101242.67;227283;1199;139951;-66
2021/10/24 03:45:59;;;;;;;16.60;7.60;;;;;;;2.16;76.84;101242.16;227106;1200;139932;-66
2021/10/24 03:51:03;;;;;;;16.50;7.60;;;;;;;2.09;76.67;101251.31;226257;1200;140484;-67
2021/10/24 03:56:23;;;;;;;15.90;6.50;;;;;;;1.95;76.46;101257.13;227512;1200;138792;-67
2021/10/24 04:01:28;;;;;;;13.40;7.00;;;;;;;1.82;76.68;101258.84;228429;1199;139022;-67
2021/10/24 04:06:39;;;;;;;20.20;6.60;;;;;;;1.76;76.71;101258.45;227546;1200;140445;-68
2021/10/24 04:11:44;;;;;;;15.90;7.10;;;;;;;1.70;76.78;101262.81;227788;1199;139352;-66
2021/10/24 04:17:08;;;;;;;27.20;13.70;;;;;;;1.59;76.61;101264.83;226984;1192;140557;-66
2021/10/24 04:22:16;;;;;;;29.50;14.80;;;;;;;1.49;76.83;101268.27;227453;1199;139710;-66
2021/10/24 04:27:20;;;;;;;;;;;;;;;1.43;76.59;101273.38;228530;1200;139588;-68
2021/10/24 04:32:39;;;;;;;20.50;11.00;;;;;;;1.34;76.40;101273.77;227957;1184;126200;-68
2021/10/24 04:37:52;;;;;;;21.90;11.40;;;;;;;1.26;76.68;101279.58;227260;1198;141383;-66
2021/10/24 04:42:57;;;;;;;16.20;9.50;;;;;;;1.14;76.51;101284.91;227669;1198;139821;-67
2021/10/24 04:48:02;;;;;;;15.00;7.30;;;;;;;1.03;76.89;101286.03;227721;1200;139310;-67
2021/10/24 04:53:24;;;;;;;;;;;;;;;;;;;;;
2021/10/24 04:58:38;;;;;;;16.30;8.40;;;;;;;0.97;76.78;101292.52;228958;1198;140762;-69
2021/10/24 05:03:48;;;;;;;12.50;8.80;;;;;;;0.92;76.77;101291.48;229143;1198;139547;-69
2021/10/24 05:08:53;;;;;;;17.40;7.60;;;;;;;0.88;76.91;101295.00;229050;1198;142021;-69
2021/10/24 05:14:21;;;;;;;20.50;8.50;;;;;;;0.87;77.14;101295.44;228454;1198;140912;-67
2021/10/24 05:19:47;;;;;;;20.30;12.20;;;;;;;0.92;77.23;101304.27;227771;1198;139474;-66
2021/10/24 05:24:52;;;;;;;28.80;14.10;;;;;;;0.91;77.04;101302.98;226794;1199;139528;-67
2021/10/24 05:30:09;;;;;;;;;;;;;;;;;;;;;
2021/10/24 05:35:36;;;;;;;20.90;11.30;;;;;;;0.77;77.32;101312.64;226300;1198;140920;-67
2021/10/24 05:41:20;;;;;;;;;;;;;;;;;;;;;
2021/10/24 05:46:29;;;;;;;19.90;10.70;;;;;;;0.81;77.21;101327.30;227518;1200;140463;-64
2021/10/24 05:51:38;;;;;;;31.30;14.40;;;;;;;0.82;77.56;101325.34;227926;1198;140523;-65
2021/10/24 05:56:56;;;;;;;19.90;13.20;;;;;;;0.81;77.28;101326.44;226452;1198;139584;-66
2021/10/24 06:02:03;;;;;;;18.10;12.20;;;;;;;0.81;77.50;101341.89;227043;1198;139839;-64
2021/10/24 06:07:14;;;;;;;32.10;12.80;;;;;;;0.83;77.70;101343.06;226962;1199;205647;-66
2021/10/24 06:12:42;;;;;;;26.10;13.70;;;;;;;0.96;77.93;101353.09;227856;1198;140362;-67
2021/10/24 06:17:52;;;;;;;24.00;14.50;;;;;;;1.13;78.04;101362.04;225877;1198;139589;-65
2021/10/24 06:23:26;;;;;;;32.00;15.80;;;;;;;1.26;78.27;101366.06;227333;1198;139853;-67
2021/10/24 06:28:30;;;;;;;36.00;17.30;;;;;;;1.34;77.91;101370.31;227380;1198;141273;-66
2021/10/24 06:33:48;;;;;;;34.80;18.20;;;;;;;1.50;78.19;101382.17;226420;1198;139781;-67
2021/10/24 06:38:59;;;;;;;27.50;17.00;;;;;;;1.60;78.11;101386.66;227154;1198;139382;-66
2021/10/24 06:44:03;;;;;;;31.10;18.20;;;;;;;1.71;78.44;101384.02;229238;1198;139557;-66
2021/10/24 06:49:27;;;;;;;;;;;;;;;;;;;;;
2021/10/24 06:54:39;;;;;;;29.40;15.10;;;;;;;2.08;78.66;101394.27;228992;1198;140746;-63
2021/10/24 06:59:43;;;;;;;28.90;15.90;;;;;;;2.29;78.92;101395.69;229195;1198;139997;-67
2021/10/24 07:04:46;;;;;;;26.50;18.70;;;;;;;2.48;78.98;101391.10;229210;1198;139856;-69
2021/10/24 07:09:50;;;;;;;28.50;15.60;;;;;;;2.73;79.06;101392.68;228778;1198;139995;-68
2021/10/24 07:14:57;;;;;;;24.50;14.10;;;;;;;2.98;79.19;101393.63;229113;1198;140389;-67
2021/10/24 07:20:29;;;;;;;25.30;15.90;;;;;;;3.22;79.17;101401.17;228068;1198;139829;-68
2021/10/24 07:25:48;;;;;;;38.40;14.70;;;;;;;3.44;79.32;101404.61;226932;1198;140232;-68
2021/10/24 07:31:08;;;;;;;25.20;15.80;;;;;;;3.65;79.12;101404.55;228010;1198;140440;-68
2021/10/24 07:36:36;;;;;;;23.40;14.50;;;;;;;3.83;79.28;101408.79;228048;1198;140053;-68
2021/10/24 07:41:51;;;;;;;;;;;;;;;;;;;;;
2021/10/24 07:46:56;;;;;;;28.80;16.50;;;;;;;4.29;79.32;101414.34;226178;1198;139712;-68
2021/10/24 07:52:01;;;;;;;26.40;16.10;;;;;;;4.49;79.43;101414.69;226975;1199;139777;-69
2021/10/24 07:57:27;;;;;;;20.80;14.60;;;;;;;4.67;79.43;101420.41;226480;1198;139714;-68
2021/10/24 08:02:33;;;;;;;26.40;15.90;;;;;;;4.84;79.17;101426.98;226983;1198;141766;-68
2021/10/24 08:07:44;;;;;;;24.00;15.10;;;;;;;4.97;79.07;101431.80;227002;1198;140439;-67
2021/10/24 08:13:16;;;;;;;19.30;14.70;;;;;;;5.11;79.08;101436.34;226234;1198;139177;-67
2021/10/24 08:18:21;;;;;;;33.90;15.60;;;;;;;5.28;79.25;101438.09;227466;1198;140597;-67
2021/10/24 08:23:59;;;;;;;23.90;14.80;;;;;;;5.47;78.90;101440.36;226605;1198;139277;-68
2021/10/24 08:29:12;;;;;;;21.00;13.00;;;;;;;5.58;78.51;101439.77;227860;1198;140100;-69
2021/10/24 08:34:26;;;;;;;25.10;14.70;;;;;;;5.77;79.13;101448.98;226859;1198;139201;-69
2021/10/24 08:39:48;;;;;;;;;;;;;;;;;;;;;
2021/10/24 08:45:03;;;;;;;22.60;11.70;;;;;;;6.20;78.63;101451.48;227729;1199;141103;-69
2021/10/24 08:50:11;;;;;;;28.90;14.00;;;;;;;6.35;78.70;101449.29;227085;1198;140947;-69
2021/10/24 08:55:45;;;;;;;19.00;13.10;;;;;;;6.48;78.40;101454.41;227868;1198;141396;-69
2021/10/24 09:01:03;;;;;;;28.40;16.60;;;;;;;6.63;78.14;101452.86;228376;1198;139580;-68
2021/10/24 09:06:11;;;;;;;31.70;15.60;;;;;;;6.87;78.50;101454.21;229068;1199;141039;-71
2021/10/24 09:11:23;;;;;;;15.40;11.40;;;;;;;7.15;78.07;101451.98;227533;1198;140746;-69
2021/10/24 09:16:38;;;;;;;19.00;8.40;;;;;;;7.37;78.10;101448.23;226258;1198;141496;-68
2021/10/24 09:22:10;;;;;;;21.70;9.80;;;;;;;7.55;77.87;101448.69;226222;1200;139133;-69
2021/10/24 09:27:22;;;;;;;15.20;9.60;;;;;;;7.77;77.72;101448.06;226142;1200;141862;-67
2021/10/24 09:33:21;;;;;;;;;;;;;;;;;;;;;
2021/10/24 09:38:48;;;;;;;15.70;7.30;;;;;;;8.15;77.48;101447.80;227143;1199;139712;-68
2021/10/24 09:44:23;;;;;;;17.50;8.00;;;;;;;8.40;77.40;101448.86;226059;1200;140440;-69
2021/10/24 09:49:39;;;;;;;;;;;;;;;;;;;;;
2021/10/24 09:55:35;;;;;;;17.50;9.20;;;;;;;8.84;76.75;101452.48;226306;1200;140368;-68
2021/10/24 10:01:28;;;;;;;;;;;;;;;;;;;;;
2021/10/24 10:06:47;;;;;;;;;;;;;;;;;;;;;
2021/10/24 10:11:58;;;;;;;16.60;7.50;;;;;;;9.42;75.61;101459.03;226264;1200;140763;-68
2021/10/24 10:17:50;;;;;;;17.00;5.80;;;;;;;9.67;75.34;101455.58;226120;1200;139529;-69
2021/10/24 10:23:09;;;;;;;10.30;6.70;;;;;;;9.92;74.68;101456.30;226535;1200;140790;-68
2021/10/24 10:28:59;;;;;;;11.60;5.60;;;;;;;10.17;74.46;101446.90;226376;1199;140811;-70
2021/10/24 10:34:31;;;;;;;15.10;5.80;;;;;;;10.50;74.14;101446.15;226168;1187;139424;-70
2021/10/24 10:39:49;;;;;;;;;;;;;;;;;;;;;
2021/10/24 10:45:42;;;;;;;8.30;5.10;;;;;;;10.92;72.63;101444.63;227858;1199;139305;-71
2021/10/24 10:50:47;;;;;;;11.90;5.10;;;;;;;11.01;72.08;101437.90;229109;1200;139513;-69
2021/10/24 10:56:20;;;;;;;7.80;3.60;;;;;;;11.18;71.59;101438.02;228990;1199;141232;-69
2021/10/24 11:02:00;;;;;;;11.50;4.80;;;;;;;11.36;70.85;101441.02;228933;1199;139553;-71
2021/10/24 11:07:06;;;;;;;10.30;4.30;;;;;;;11.54;70.29;101442.30;229066;1199;140035;-71
2021/10/24 11:12:31;;;;;;;7.50;3.80;;;;;;;11.74;69.95;101445.29;228963;1199;141598;-71
2021/10/24 11:17:44;;;;;;;10.10;3.40;;;;;;;11.88;69.14;101445.36;229125;1199;139242;-71
2021/10/24 11:23:00;;;;;;;7.90;3.20;;;;;;;12.03;69.08;101438.44;228891;1199;140058;-71
2021/10/24 11:28:53;;;;;;;9.00;2.90;;;;;;;12.16;68.20;101432.29;227328;1199;152322;-71
2021/10/24 11:34:44;;;;;;;;;;;;;;;;;;;;;
2021/10/24 11:40:49;;;;;;;4.00;2.10;;;;;;;12.26;67.15;101425.09;226196;1200;139161;-70
2021/10/24 11:46:24;;;;;;;7.50;2.60;;;;;;;12.44;66.61;101422.06;226067;1199;139990;-70
2021/10/24 11:51:28;;;;;;;13.90;3.70;;;;;;;12.52;65.99;101423.21;226755;1199;139116;-71
2021/10/24 12:02:24;;;;;;;6.60;3.30;;;;;;;12.06;65.13;101426.88;227908;1200;138953;-70
2021/10/24 12:07:54;;;;;;;7.50;4.30;;;;;;;11.97;65.11;101425.17;226501;1200;140690;-70
2021/10/24 12:13:34;;;;;;;11.50;5.40;;;;;;;12.16;65.08;101421.26;225947;1200;140738;-70
2021/10/24 12:18:54;;;;;;;5.90;2.20;;;;;;;12.44;64.52;101417.25;226111;1200;141021;-71
2021/10/24 12:25:02;;;;;;;11.00;3.80;;;;;;;12.63;63.81;101415.66;226576;1200;139615;-71
2021/10/24 12:30:13;;;;;;;4.90;3.40;;;;;;;12.71;63.35;101404.91;225974;1205;139641;-71
2021/10/24 12:35:50;;;;;;;5.40;2.60;;;;;;;12.78;63.27;101402.73;226786;1200;140240;-69
2021/10/24 12:41:17;;;;;;;;;;;;;;;;;;;;;
2021/10/24 12:47:03;;;;;;;3.50;2.10;;;;;;;13.00;62.27;101394.52;225901;1199;138939;-70
2021/10/24 12:52:29;;;;;;;4.40;1.80;;;;;;;12.91;61.87;101388.20;225996;1200;139470;-69
2021/10/24 12:57:33;;;;;;;7.10;2.10;;;;;;;12.97;61.55;101390.05;225811;1200;139489;-70
2021/10/24 13:02:59;;;;;;;;;;;;;;;;;;;;;
2021/10/24 13:08:03;;;;;;;8.40;2.70;;;;;;;12.90;61.50;101382.31;228902;1199;140160;-69
2021/10/24 13:13:12;;;;;;;7.10;2.70;;;;;;;12.68;61.18;101378.01;229014;1199;140522;-70
2021/10/24 13:18:16;;;;;;;3.60;2.20;;;;;;;12.53;61.13;101375.55;229310;1199;139591;-69
2021/10/24 13:23:52;;;;;;;;;;;;;;;;;;;;;
2021/10/24 13:28:59;;;;;;;8.20;4.80;;;;;;;12.23;60.75;101367.18;228296;1200;140088;-68
2021/10/24 13:34:15;;;;;;;13.30;2.40;;;;;;;12.19;61.01;101363.98;226548;1198;142189;-67
2021/10/24 13:39:25;;;;;;;6.70;3.20;;;;;;;12.11;60.89;101357.18;226205;1198;139945;-70
2021/10/24 13:44:53;;;;;;;3.70;2.10;;;;;;;12.06;60.81;101347.77;225982;1198;139357;-70
2021/10/24 13:50:10;;;;;;;6.20;2.60;;;;;;;11.93;60.71;101336.38;225909;1198;140133;-68
2021/10/24 13:55:27;;;;;;;7.90;2.30;;;;;;;11.88;60.65;101332.88;226818;1198;139659;-69
2021/10/24 14:00:37;;;;;;;4.00;2.20;;;;;;;11.79;60.54;101331.08;226629;1198;139678;-69
2021/10/24 14:05:47;;;;;;;6.00;2.70;;;;;;;11.63;60.83;101333.71;226044;1198;139557;-68
2021/10/24 14:10:55;;;;;;;9.20;1.90;;;;;;;11.40;60.61;101331.92;226421;1198;139188;-70
2021/10/24 14:16:33;;;;;;;4.00;2.80;;;;;;;11.15;60.72;101329.34;227533;1198;140349;-69
2021/10/24 14:21:59;;;;;;;2.60;2.40;;;;;;;11.11;61.28;101327.71;227126;1198;139384;-69
2021/10/24 14:27:29;;;;;;;2.70;1.50;;;;;;;11.11;61.37;101326.98;226714;1198;138969;-71
2021/10/24 14:32:53;;;;;;;;;;;;;;;;;;;;;
2021/10/24 14:38:08;;;;;;;5.80;2.20;;;;;;;10.92;61.75;101329.70;226011;1198;140457;-69
2021/10/24 14:43:13;;;;;;;8.60;3.70;;;;;;;10.80;61.75;101330.02;227335;1198;141167;-69
2021/10/24 14:48:38;;;;;;;3.60;2.30;;;;;;;10.66;62.04;101322.73;226340;1198;141493;-67
2021/10/24 14:53:56;;;;;;;5.00;2.50;;;;;;;10.47;62.50;101322.66;226204;1198;140281;-67
2021/10/24 14:59:09;;;;;;;7.90;2.90;;;;;;;10.27;62.85;101316.38;226161;1198;140290;-67
2021/10/24 15:04:22;;;;;;;7.50;3.20;;;;;;;10.09;63.24;101307.94;226420;1198;139737;-69
2021/10/24 15:09:51;;;;;;;;;;;;;;;;;;;;;
2021/10/24 15:15:14;;;;;;;9.60;3.00;;;;;;;9.65;63.61;101305.87;229031;1198;139359;-69
2021/10/24 15:25:42;;;;;;;6.50;3.70;;;;;;;9.21;63.88;101307.25;228457;1198;139792;-66
2021/10/24 15:31:01;;;;;;;8.30;3.80;;;;;;;9.00;64.06;101301.56;229117;1198;139433;-68
2021/10/24 15:36:06;;;;;;;7.00;3.60;;;;;;;8.81;64.44;101301.57;226741;1198;140590;-67
2021/10/24 15:41:44;;;;;;;8.10;3.70;;;;;;;8.65;64.44;101300.64;226756;1198;140252;-71
2021/10/24 15:47:02;;;;;;;;;;;;;;;;;;;;;
2021/10/24 15:52:09;;;;;;;7.50;3.00;;;;;;;8.10;64.98;101299.33;226882;1198;139806;-68
2021/10/24 15:57:27;;;;;;;5.70;3.10;;;;;;;7.76;65.19;101293.41;225924;1198;138945;-68
2021/10/24 16:02:42;;;;;;;11.30;4.30;;;;;;;7.47;65.73;101299.27;226271;1198;142207;-68
2021/10/24 16:07:55;;;;;;;7.80;3.70;;;;;;;7.16;65.71;101296.77;227115;1198;140774;-67
2021/10/24 16:13:24;;;;;;;;;;;;;;;;;;;;;
2021/10/24 16:18:28;;;;;;;12.40;4.30;;;;;;;6.60;65.84;101292.52;226707;1198;139679;-66
2021/10/24 16:23:33;;;;;;;10.50;6.50;;;;;;;6.29;66.42;101295.65;226659;1198;138864;-67
2021/10/24 16:28:40;;;;;;;13.80;5.20;;;;;;;6.05;67.05;101300.29;226128;1198;139635;-65
2021/10/24 16:33:48;;;;;;;8.00;4.00;;;;;;;5.85;67.00;101298.86;226192;1198;139335;-67
2021/10/24 16:39:40;;;;;;;9.70;6.30;;;;;;;5.58;67.45;101295.04;227042;1198;138634;-67
2021/10/24 16:44:43;;;;;;;24.50;14.30;;;;;;;5.34;67.76;101290.41;226865;1199;141876;-67
2021/10/24 16:49:58;;;;;;;23.40;14.10;;;;;;;5.25;68.30;101296.99;227815;1198;140688;-67
2021/10/24 16:55:20;;;;;;;26.80;15.30;;;;;;;5.22;68.74;101298.45;227953;1198;140139;-67
2021/10/24 17:00:28;;;;;;;26.40;15.60;;;;;;;5.10;68.76;101304.50;228726;1200;139615;-69
2021/10/24 17:05:37;;;;;;;72.30;32.00;;;;;;;4.92;68.86;101306.02;228678;1198;139560;-65
2021/10/24 17:10:46;;;;;;;42.90;22.30;;;;;;;4.74;69.01;101303.84;229043;1200;143193;-67
2021/10/24 17:15:58;;;;;;;44.70;23.60;;;;;;;4.60;68.89;101306.64;228204;1198;140347;-67
2021/10/24 17:21:04;;;;;;;42.30;20.40;;;;;;;4.46;69.23;101311.98;228988;1198;140276;-66
2021/10/24 17:26:07;;;;;;;43.60;25.30;;;;;;;4.28;69.48;101318.77;228442;1198;140371;-65
2021/10/24 17:31:17;;;;;;;44.60;25.80;;;;;;;4.11;69.65;101310.08;229131;1198;208515;-69
2021/10/24 17:36:51;;;;;;;;;;;;;;;;;;;;;
2021/10/24 17:41:55;;;;;;;35.30;23.30;;;;;;;4.07;70.20;101304.50;228757;1200;140138;-65
2021/10/24 17:47:06;;;;;;;30.20;18.10;;;;;;;3.98;70.13;101302.77;227432;1198;139219;-67
2021/10/24 17:52:13;;;;;;;23.60;17.70;;;;;;;3.80;70.21;101294.11;227720;1198;139961;-67
2021/10/24 17:57:19;;;;;;;32.70;19.30;;;;;;;3.62;70.70;101292.17;226847;1198;140529;-66
2021/10/24 18:02:26;;;;;;;32.60;20.60;;;;;;;3.47;71.14;101288.71;228010;1199;139681;-68
2021/10/24 18:07:33;;;;;;;28.80;17.20;;;;;;;3.41;71.28;101289.64;226162;1198;138914;-67
2021/10/24 18:18:42;;;;;;;44.00;22.30;;;;;;;3.21;71.10;101274.56;227164;1198;140136;-64
2021/10/24 18:24:20;;;;;;;45.30;22.80;;;;;;;3.16;71.35;101265.80;227106;1198;140273;-65
2021/10/24 18:29:54;;;;;;;25.10;15.60;;;;;;;2.97;71.40;101260.39;226485;1200;139134;-66
2021/10/24 18:35:45;;;;;;;37.70;21.70;;;;;;;2.80;71.57;101253.51;226725;1198;139754;-67
2021/10/24 18:40:49;;;;;;;33.80;18.20;;;;;;;2.70;71.71;101250.54;227489;1199;140241;-70
2021/10/24 18:46:09;;;;;;;;;;;;;;;;;;;;;
2021/10/24 18:51:32;;;;;;;36.10;16.30;;;;;;;2.55;72.28;101241.71;227957;1198;139304;-68
2021/10/24 18:57:26;;;;;;;62.90;25.30;;;;;;;2.39;72.03;101233.78;226351;1198;140323;-65
2021/10/24 19:02:31;;;;;;;112.60;35.80;;;;;;;2.24;72.46;101228.13;227987;1200;139949;-66
2021/10/24 19:07:37;;;;;;;99.10;32.20;;;;;;;2.16;72.38;101223.42;229028;1198;141266;-69
2021/10/24 19:13:10;;;;;;;70.50;27.00;;;;;;;2.09;72.46;101215.73;227065;1200;141060;-67
2021/10/24 19:18:24;;;;;;;56.20;26.10;;;;;;;1.97;72.61;101213.30;227898;1198;140218;-68
2021/10/24 19:23:40;;;;;;;43.70;20.00;;;;;;;1.90;73.13;101209.58;229127;1198;141665;-70
2021/10/24 19:28:45;;;;;;;80.40;28.90;;;;;;;1.87;73.44;101207.55;228290;1198;140835;-70
2021/10/24 19:33:54;;;;;;;59.60;27.30;;;;;;;1.90;73.41;101202.58;227386;1198;141628;-68
2021/10/24 19:39:05;;;;;;;57.10;30.10;;;;;;;1.97;73.88;101195.91;228620;1198;141533;-69
2021/10/24 19:44:11;;;;;;;48.40;26.20;;;;;;;2.06;74.40;101198.11;229267;1198;140187;-68
2021/10/24 19:49:28;;;;;;;56.40;27.00;;;;;;;2.15;74.32;101197.09;226943;1198;140874;-65
2021/10/24 19:55:42;;;;;;;60.70;30.90;;;;;;;2.18;73.91;101196.25;227904;1199;140149;-66
2021/10/24 20:00:49;;;;;;;51.50;27.10;;;;;;;2.15;73.91;101194.60;226489;1198;140224;-67
2021/10/24 20:06:36;;;;;;;45.20;23.30;;;;;;;2.11;73.95;101193.64;227469;1198;138911;-66
2021/10/24 20:12:29;;;;;;;50.70;30.50;;;;;;;2.14;74.63;101190.85;227883;1199;139853;-66
2021/10/24 20:17:47;;;;;;;;;;;;;;;;;;;;;
2021/10/24 20:23:02;;;;;;;65.40;31.00;;;;;;;2.24;74.59;101179.50;228149;1198;144384;-67
2021/10/24 20:28:17;;;;;;;68.10;36.20;;;;;;;2.34;74.91;101179.05;226434;1198;139703;-66
2021/10/24 20:33:26;;;;;;;69.30;35.90;;;;;;;2.39;75.27;101169.49;225910;1198;143179;-66
2021/10/24 20:38:54;;;;;;;;;;;;;;;;;;;;;
2021/10/24 20:44:26;;;;;;;;;;;;;;;;;;;;;
2021/10/24 20:49:37;;;;;;;55.60;29.60;;;;;;;2.54;75.52;101162.64;226505;1200;140478;-68
2021/10/24 20:54:45;;;;;;;52.30;28.60;;;;;;;2.52;75.41;101155.41;227494;1199;140393;-66
2021/10/24 20:59:58;;;;;;;59.00;33.20;;;;;;;2.47;75.46;101153.27;227448;1200;138964;-69
2021/10/24 21:05:13;;;;;;;55.20;27.90;;;;;;;2.44;75.34;101154.84;227330;1199;139957;-66
2021/10/24 21:10:18;;;;;;;66.00;32.50;;;;;;;2.44;75.03;101149.71;227295;1199;140789;-66
2021/10/24 21:16:04;;;;;;;70.60;37.90;;;;;;;2.41;75.15;101148.16;228429;1200;140413;-68
2021/10/24 21:21:25;;;;;;;62.80;38.40;;;;;;;2.34;75.21;101149.44;226433;1200;139317;-66
2021/10/24 21:26:40;;;;;;;40.60;23.60;;;;;;;2.28;74.88;101149.55;227654;1199;159673;-69
2021/10/24 21:31:44;;;;;;;41.30;20.20;;;;;;;2.23;75.22;101148.77;228875;1199;139217;-72
2021/10/24 21:36:50;;;;;;;34.80;20.60;;;;;;;2.28;75.25;101148.11;229030;1198;140786;-69
2021/10/24 21:42:15;;;;;;;42.70;20.90;;;;;;;2.35;75.25;101147.80;228418;1192;139755;-66
2021/10/24 21:47:27;;;;;;;31.40;17.70;;;;;;;2.37;75.54;101147.27;229190;1198;139164;-66
2021/10/24 21:52:34;;;;;;;33.00;16.40;;;;;;;2.36;75.42;101140.98;228143;1198;139431;-66
2021/10/24 21:57:39;;;;;;;;;;;;;;;2.44;75.62;101139.20;227921;1200;140106;-67
2021/10/24 22:02:43;;;;;;;34.70;16.90;;;;;;;2.50;75.68;101141.82;230027;1198;126950;-68
2021/10/24 22:08:28;;;;;;;;;;;;;;;;;;;;;
2021/10/24 22:13:57;;;;;;;30.90;15.20;;;;;;;2.56;76.02;101134.73;227666;1198;141417;-68
2021/10/24 22:19:34;;;;;;;43.90;16.00;;;;;;;2.61;75.75;101135.48;228266;1198;141675;-68
2021/10/24 22:25:02;;;;;;;31.00;17.30;;;;;;;2.63;76.10;101133.65;226373;1200;140482;-66
2021/10/24 22:30:29;;;;;;;29.50;15.00;;;;;;;2.64;76.01;101132.48;228055;1198;140959;-66
2021/10/24 22:35:38;;;;;;;43.30;17.90;;;;;;;2.62;76.02;101128.02;226162;1200;139904;-66
2021/10/24 22:40:43;;;;;;;42.80;17.80;;;;;;;2.66;76.00;101127.54;226393;1200;139412;-66
2021/10/24 22:46:22;;;;;;;36.20;18.40;;;;;;;2.68;76.31;101116.80;227088;1199;140567;-67
2021/10/24 22:51:35;;;;;;;42.90;21.00;;;;;;;2.72;76.38;101114.04;227380;1199;139542;-67
2021/10/24 22:56:46;;;;;;;44.00;19.10;;;;;;;2.73;76.23;101114.12;228302;1200;139797;-66
2021/10/24 23:02:21;;;;;;;;;;;;;;;;;;;;;
2021/10/24 23:07:27;;;;;;;45.90;22.50;;;;;;;2.80;76.36;101112.13;227734;1200;140643;-67
2021/10/24 23:12:38;;;;;;;37.60;17.90;;;;;;;2.81;76.25;101109.62;227006;1200;150337;-66
2021/10/24 23:17:53;;;;;;;36.80;18.30;;;;;;;2.78;76.48;101106.34;227827;1200;139513;-66
2021/10/24 23:23:05;;;;;;;36.70;16.80;;;;;;;2.79;76.23;101105.02;227455;1199;140425;-66
2021/10/24 23:28:23;;;;;;;32.20;18.90;;;;;;;2.82;76.25;101101.94;228039;1199;141246;-68
2021/10/24 23:33:29;;;;;;;30.60;19.30;;;;;;;2.81;76.49;101098.92;227963;1199;139923;-67
2021/10/24 23:38:45;;;;;;;33.00;17.30;;;;;;;2.80;76.49;101094.58;229092;1199;140731;-69
2021/10/24 23:43:49;;;;;;;29.70;16.10;;;;;;;2.80;76.27;101091.94;228768;1199;139723;-70
2021/10/24 23:48:53;;;;;;;37.40;18.00;;;;;;;2.83;76.36;101090.56;227824;1200;141748;-68
2021/10/24 23:53:58;;;;;;;31.60;18.40;;;;;;;2.90;76.59;101088.02;228987;1199;140048;-68
2021/10/24 23:59:13;;;;;;;;;;;;;;;;;;;;;
